Jenkins, MN (56456)

6:57 PM CDT on August 30, 2016 (GMT -0500)
Lake Bertha | | Change Station

Elev 1250 ft 46.66 °N, 94.25 °W | Updated 6 seconds ago

Clear
Clear
75.7 °F
Feels Like 78 °F
N
0.0
Wind Variable Wind from SSW
Gusts 0.0 mph

Today
High -- | Low -- °F
--% Chance of Precip.
Yesterday
High -- | Low -- °F
Precip. -- in
Pressure 30.21 in
Visibility 10.0 miles
Clouds Clear
Heat Index 78 °F
Dew Point 57 °F
Humidity 52%
Rainfall 0.00 in
Snow Depth Not available.
6:35 AM 7:59 PM
Waning Crescent, 2% visible
METAR KPWC 302353Z AUTO 35004KT 10SM CLR 23/12 A3021 RMK AO2
Pressure 30.21 in
Visibility 10.0 miles
Clouds Clear
Heat Index 78 °F
Dew Point 57 °F
Humidity 52%
Rainfall 0.00 in
Snow Depth Not available.
6:35 AM 7:59 PM
Waning Crescent, 2% visible
METAR KPWC 302353Z AUTO 35004KT 10SM CLR 23/12 A3021 RMK AO2

10-Day Weather Forecast

Almanac

Astronomy

Aug. 30, 2016 Rise Set
Actual Time
Civil Twilight
Nautical Twilight
Astronomical Twilight
Moon
Length of Visible Light
Length of Day
Tomorrow will be .
, % of the Moon is Illuminated

Today's Extremes

State Highs State Lows

Community

WunderPhotos

Upload Photos

1,935,947 photos uploaded!

WunderBlog® & News

Nearby

Air Quality

  Air Quality AQ Index Pollutant
Not available.

Snow Depth

Station Depth Elevation

Earthquake Activity

City Distance Mag. Time & Date
Minimum magnitude displayed is 2.5.

Coastal Water Temperatures

Place Temperature

Stations

Nearby Weather Stations

Station Location Temp. Windchill Dew Point Humidity Wind Precip. Elev Updated Type
                   

Watches & Warnings

There are currently no watches in effect.